CDT,Max TemperatureF,Mean TemperatureF,Min TemperatureF,Max Dew PointF,MeanDew PointF,Min DewpointF,Max Humidity, Mean Humidity, Min Humidity, Max Sea Level PressureIn, Mean Sea Level PressureIn, Min Sea Level PressureIn, Max VisibilityMiles, Mean VisibilityMiles, Min VisibilityMiles, Max Wind SpeedMPH, Mean Wind SpeedMPH, Max Gust SpeedMPH,PrecipitationIn, CloudCover, Events, WindDirDegrees
2012-9-1,95,87,78,75,72,68,85,64,43,30.09,30.02,29.95,10,10,9,21,10,26,0.00,3,,202
2012-9-2,96,87,77,74,71,67,88,63,38,30.04,29.97,29.90,10,10,10,17,8,23,0.00,0,,204
2012-9-3,97,88,78,72,69,64,79,57,35,30.01,29.94,29.87,10,10,10,16,8,21,0.00,0,,203
2012-9-4,98,88,77,73,69,64,85,60,35,29.96,29.90,29.83,10,10,10,15,7,21,0.00,0,,196
2012-9-5,99,88,76,71,66,57,82,54,26,29.92,29.86,29.80,10,10,10,16,7,21,0.00,0,,188
2012-9-6,100,89,77,70,67,63,74,53,31,29.94,29.88,29.82,10,10,10,12,6,17,0.00,0,,196
2012-9-7,101,89,76,68,66,61,71,50,29,29.91,29.84,29.76,10,10,10,14,7,18,0.00,0,,197
2012-9-8,87,77,67,69,58,44,74,49,23,30.07,29.99,29.83,10,10,10,23,10,28,T,3,Rain,360
2012-9-9,89,73,56,51,47,39,77,48,18,30.15,30.08,30.04,10,10,10,15,3,23,0.00,0,,4
2012-9-10,92,76,59,54,49,45,72,47,22,30.14,30.07,30.02,10,10,10,12,5,18,0.00,0,,149
2012-9-11,92,77,61,58,54,50,73,49,25,30.13,30.07,30.00,10,10,10,18,8,23,0.00,0,,150
2012-9-12,93,79,64,70,63,55,78,57,36,30.11,30.04,29.95,10,10,9,17,8,21,0.00,1,,132
2012-9-13,89,80,71,72,71,68,93,73,53,30.15,30.10,30.02,10,8,1,28,6,32,0.59,5,Rain,172
2012-9-14,81,76,70,70,69,65,100,85,69,30.20,30.16,30.11,10,7,0,10,4,13,0.00,7,Fog,307
2012-9-15,81,74,66,69,64,63,87,75,62,30.19,30.15,30.07,10,10,8,9,4,12,0.00,7,,332
2012-9-16,72,69,66,68,65,63,100,87,73,30.10,30.04,29.99,10,8,4,7,2,9,0.26,7,Rain,349
2012-9-17,76,72,67,67,66,64,100,87,73,30.00,29.89,29.81,10,7,4,12,3,13,0.05,7,Rain,17
2012-9-18,81,72,62,67,63,51,100,77,54,30.08,29.99,29.88,10,9,5,14,5,17,0.00,3,,347
2012-9-19,83,70,56,58,53,47,93,62,30,30.17,30.11,30.05,10,9,2,10,4,13,0.00,0,,124
2012-9-20,87,72,57,58,54,51,80,55,30,30.11,30.04,29.98,10,10,10,12,7,15,0.00,0,,173
2012-9-21,89,75,60,60,57,53,84,57,29,30.04,29.99,29.94,10,10,9,10,6,14,0.00,0,,182
2012-9-22,91,76,61,63,59,51,90,58,26,30.11,30.05,29.98,10,10,9,9,5,10,0.00,0,,196
2012-9-23,93,79,65,67,63,56,87,59,30,30.19,30.12,30.08,10,10,8,10,6,13,0.00,0,,183
2012-9-24,93,81,68,67,63,56,84,57,30,30.16,30.08,30.00,10,10,6,14,7,21,0.00,0,,177
2012-9-25,93,83,72,70,66,60,93,65,36,30.07,30.00,29.92,10,8,4,21,12,26,0.00,1,,192
2012-9-26,91,80,69,70,66,62,97,68,38,30.09,30.02,29.97,10,9,4,18,9,24,0.00,1,,174
2012-9-27,90,79,68,70,65,55,93,64,34,30.11,30.06,30.01,10,9,4,10,5,17,0.00,1,,160
2012-9-28,91,79,67,67,62,57,84,59,34,30.08,30.01,29.95,10,10,8,13,2,21,0.00,0,,110
2012-9-29,76,71,66,70,67,63,97,81,64,29.98,29.88,29.79,10,4,1,25,10,35,3.04,7,Rain,70
2012-9-30,66,63,59,65,62,56,100,92,84,29.84,29.79,29.72,10,4,1,25,12,37,1.46,8,Rain,13